Time;durP1;ratioP1;P1;durP2;ratioP2;P2;SDS_P1;SDS_P2;PMS_P1;PMS_P2;Temp;Humidity;BMP_temperature;BMP_pressure;BME280_temperature;BME280_humidity;BME280_pressure;Samples;Min_cycle;Max_cycle;Signal;HPM_P1;HPM_P2
2023/02/14 00:01:40;;;;;;;1999.90;999.90;;;;;;;-0.17;100.00;99711.75;5033996;28;20021;-85
2023/02/14 00:04:06;;;;;;;1999.90;999.90;;;;;;;-0.40;100.00;99720.84;5033906;28;20452;-85
2023/02/14 00:06:34;;;;;;;1999.90;999.90;;;;;;;-0.32;100.00;99737.75;5034915;28;20086;-85
2023/02/14 00:09:00;;;;;;;1999.90;999.90;;;;;;;-0.29;100.00;99740.09;5018451;28;20085;-86
2023/02/14 00:11:26;;;;;;;1999.90;999.90;;;;;;;-0.43;100.00;99738.19;5036898;28;20014;-84
2023/02/14 00:16:35;;;;;;;1999.90;999.90;;;;;;;-0.37;100.00;99745.50;5036812;28;20045;-84
2023/02/14 00:19:03;;;;;;;1999.90;999.90;;;;;;;-0.36;100.00;99740.97;5036678;28;20026;-86
2023/02/14 00:21:34;;;;;;;1999.90;999.90;;;;;;;-0.42;100.00;99737.19;5035903;28;20073;-87
2023/02/14 00:24:01;;;;;;;1999.90;999.90;;;;;;;-0.44;100.00;99738.38;5019479;28;20030;-85
2023/02/14 00:26:26;;;;;;;1999.90;999.90;;;;;;;-0.39;100.00;99739.50;5035678;28;20057;-84
2023/02/14 00:28:52;;;;;;;1999.90;999.90;;;;;;;-0.33;100.00;99736.09;5037230;28;20045;-83
2023/02/14 00:31:17;;;;;;;1999.90;999.90;;;;;;;-0.38;100.00;99735.81;5036328;28;20033;-84
2023/02/14 00:33:43;;;;;;;1999.90;999.90;;;;;;;-0.44;100.00;99730.31;5036449;28;20022;-82
2023/02/14 00:36:09;;;;;;;1999.90;999.90;;;;;;;-0.27;100.00;99738.03;5035710;28;20030;-83
2023/02/14 00:38:35;;;;;;;1999.90;999.90;;;;;;;-0.34;100.00;99742.47;5036697;28;20105;-82
2023/02/14 00:41:01;;;;;;;1999.90;999.90;;;;;;;-0.31;100.00;99742.09;5036874;28;20034;-83
2023/02/14 00:43:27;;;;;;;1999.90;999.90;;;;;;;-0.53;100.00;99739.47;5036811;28;20006;-84
2023/02/14 00:45:52;;;;;;;1999.90;999.90;;;;;;;-0.58;100.00;99740.84;5036448;28;20005;-87
2023/02/14 00:48:17;;;;;;;1999.90;999.90;;;;;;;-0.68;100.00;99745.59;5036591;28;20037;-84
2023/02/14 00:50:45;;;;;;;1999.90;999.90;;;;;;;-0.72;100.00;99735.41;5036636;28;20053;-82
2023/02/14 00:53:10;;;;;;;1999.90;999.90;;;;;;;-0.79;100.00;99735.28;5036942;28;20089;-86
2023/02/14 00:55:36;;;;;;;1999.90;999.90;;;;;;;-0.73;100.00;99745.31;5037325;28;20029;-87
2023/02/14 00:58:01;;;;;;;1999.90;999.90;;;;;;;-0.74;100.00;99745.47;5036218;28;20070;-84
2023/02/14 01:00:26;;;;;;;1999.90;999.90;;;;;;;-0.82;100.00;99734.81;5032969;28;20030;-85
2023/02/14 01:02:52;;;;;;;1999.90;999.90;;;;;;;-0.71;100.00;99737.06;5033581;28;20018;-85
2023/02/14 01:05:17;;;;;;;1999.90;999.90;;;;;;;-0.79;100.00;99735.28;5033034;28;20017;-86
2023/02/14 01:07:43;;;;;;;1999.90;999.90;;;;;;;-0.82;100.00;99734.81;5034637;28;20479;-80
2023/02/14 01:10:08;;;;;;;1999.90;999.90;;;;;;;-0.74;100.00;99750.84;5036224;28;20018;-87
2023/02/14 01:12:34;;;;;;;1999.90;999.90;;;;;;;-0.86;100.00;99757.66;5035812;28;20028;-86
2023/02/14 01:14:59;;;;;;;1999.90;999.90;;;;;;;-0.85;100.00;99751.28;5035529;28;20038;-83
2023/02/14 01:17:25;;;;;;;1999.90;999.90;;;;;;;-0.91;100.00;99757.34;5035426;28;20018;-84
2023/02/14 01:19:53;;;;;;;1999.90;999.90;;;;;;;-0.86;100.00;99763.88;5018563;28;20110;-83
2023/02/14 01:22:19;;;;;;;1999.90;999.90;;;;;;;-0.81;100.00;99766.00;5035627;28;20022;-88
2023/02/14 01:24:44;;;;;;;1999.90;999.90;;;;;;;-0.82;100.00;99761.66;5036182;28;20037;-84
2023/02/14 01:27:10;;;;;;;1999.90;999.90;;;;;;;-0.84;100.00;99760.97;5035889;28;20022;-86
2023/02/14 01:29:35;;;;;;;1999.90;999.90;;;;;;;-0.84;100.00;99751.09;5035640;28;20022;-85
2023/02/14 01:32:00;;;;;;;1999.90;999.90;;;;;;;-0.94;100.00;99742.41;5036029;28;20018;-86
2023/02/14 01:34:26;;;;;;;1999.90;999.90;;;;;;;-0.99;100.00;99731.38;5035973;28;20034;-86
2023/02/14 01:36:51;;;;;;;1999.90;999.90;;;;;;;-0.93;100.00;99752.16;5036328;28;20098;-85
2023/02/14 01:39:17;;;;;;;1999.90;999.90;;;;;;;-1.00;100.00;99742.31;5041658;28;20038;-85
2023/02/14 01:41:47;;;;;;;1999.90;999.90;;;;;;;-0.99;100.00;99741.28;5042683;28;20002;-88
2023/02/14 01:44:12;;;;;;;1999.90;999.90;;;;;;;-1.05;100.00;99752.72;5042468;28;20041;-84
2023/02/14 01:46:38;;;;;;;1999.90;999.90;;;;;;;-1.08;100.00;99743.19;5042529;28;20562;-87
2023/02/14 01:49:19;;;;;;;1999.90;999.90;;;;;;;-1.12;100.00;99728.44;5042714;28;20017;-85
2023/02/14 01:51:51;;;;;;;1999.90;999.90;;;;;;;-1.13;100.00;99721.41;5042128;28;20101;-88
2023/02/14 01:54:19;;;;;;;1999.90;999.90;;;;;;;-1.21;100.00;99724.97;5043012;28;20502;-85
2023/02/14 01:56:50;;;;;;;1999.90;999.90;;;;;;;-1.01;100.00;99748.69;5042067;28;20006;-84
2023/02/14 01:59:19;;;;;;;1999.90;999.90;;;;;;;-1.11;100.00;99743.53;5042210;28;20026;-84
2023/02/14 02:01:48;;;;;;;1999.90;999.90;;;;;;;-1.14;100.00;99758.16;5041881;28;20026;-85
2023/02/14 02:04:21;;;;;;;1999.90;999.90;;;;;;;-1.24;100.00;99759.38;5042177;28;20045;-86
2023/02/14 02:06:51;;;;;;;1999.90;999.90;;;;;;;-1.30;100.00;99747.50;5041813;28;20022;-85
2023/02/14 02:09:27;;;;;;;1999.90;999.90;;;;;;;-1.25;100.00;99753.16;5041460;28;20045;-85
2023/02/14 02:11:52;;;;;;;1999.90;999.90;;;;;;;-1.29;100.00;99759.09;5041378;28;20030;-85
2023/02/14 02:14:20;;;;;;;1999.90;999.90;;;;;;;-1.31;100.00;99737.78;5041473;28;20079;-85
2023/02/14 02:17:11;;;;;;;1999.90;999.90;;;;;;;-1.29;100.00;99751.88;5041544;28;20026;-84
2023/02/14 02:20:12;;;;;;;1999.90;999.90;;;;;;;-1.28;100.00;99758.88;5041199;28;20029;-87
2023/02/14 02:23:15;;;;;;;1999.90;999.90;;;;;;;-1.23;100.00;99753.84;5040939;28;20034;-85
2023/02/14 02:25:49;;;;;;;1999.90;999.90;;;;;;;-1.32;100.00;99746.84;5040653;28;20037;-83
2023/02/14 02:28:49;;;;;;;1999.90;999.90;;;;;;;-1.34;100.00;99745.34;5037859;28;20025;-87
2023/02/14 02:31:23;;;;;;;1999.90;999.90;;;;;;;-1.13;100.00;99757.13;5038050;28;20073;-83
2023/02/14 02:33:51;;;;;;;1999.90;999.90;;;;;;;-1.18;100.00;99751.47;5036300;28;20034;-86
2023/02/14 02:36:31;;;;;;;1999.90;999.90;;;;;;;-1.26;100.00;99756.88;5011126;28;20025;-85
2023/02/14 02:38:57;;;;;;;1999.90;999.90;;;;;;;-1.14;100.00;99743.91;5033999;28;20045;-84
2023/02/14 02:41:36;;;;;;;1999.90;999.90;;;;;;;-1.19;100.00;99749.78;5037575;28;20082;-84
2023/02/14 02:44:22;;;;;;;1999.90;999.90;;;;;;;-1.26;100.00;99742.63;5037328;28;20124;-84
2023/02/14 02:47:10;;;;;;;1999.90;999.90;;;;;;;-1.38;100.00;99750.22;5037034;28;20021;-85
2023/02/14 02:53:05;;;;;;;1999.90;999.90;;;;;;;-1.49;100.00;99730.97;5035635;28;20041;-85
2023/02/14 02:58:38;;;;;;;1999.90;999.90;;;;;;;-1.51;100.00;99741.91;5033882;28;20045;-83
2023/02/14 03:01:19;;;;;;;1999.90;999.90;;;;;;;-1.42;100.00;99754.28;5034160;28;20010;-83
2023/02/14 03:06:32;;;;;;;1999.90;999.90;;;;;;;-1.35;100.00;99749.88;5034229;28;20040;-85
2023/02/14 03:09:10;;;;;;;1999.90;999.90;;;;;;;-1.44;100.00;99755.47;5018104;28;20022;-85
2023/02/14 03:11:43;;;;;;;1999.90;999.90;;;;;;;-1.44;100.00;99744.72;4998132;28;20030;-83
2023/02/14 03:14:52;;;;;;;1999.90;999.90;;;;;;;-1.51;100.00;99760.69;4997851;28;20031;-86
2023/02/14 03:17:36;;;;;;;1999.90;999.90;;;;;;;-1.45;100.00;99753.78;5013616;28;20042;-87
2023/02/14 03:20:16;;;;;;;1999.90;999.90;;;;;;;-1.51;100.00;99754.47;5013972;28;20033;-85
2023/02/14 03:23:21;;;;;;;1999.90;999.90;;;;;;;-1.48;100.00;99757.66;5014370;28;20022;-85
2023/02/14 03:25:55;;;;;;;1999.90;999.90;;;;;;;-1.43;100.00;99767.84;5014805;28;20041;-85
2023/02/14 03:28:54;;;;;;;1999.90;999.90;;;;;;;-1.40;100.00;99754.94;5014375;28;20014;-86
2023/02/14 03:31:32;;;;;;;1999.90;999.90;;;;;;;-1.66;100.00;99747.13;5013707;28;20026;-82
2023/02/14 03:34:13;;;;;;;1999.90;999.90;;;;;;;-1.46;100.00;99769.03;5035313;28;20060;-85
2023/02/14 03:36:49;;;;;;;1999.90;999.90;;;;;;;-1.68;100.00;99749.16;5015549;28;20037;-84
2023/02/14 03:39:25;;;;;;;1999.90;999.90;;;;;;;-1.49;100.00;99766.69;5015766;28;20109;-87
2023/02/14 03:42:03;;;;;;;1999.90;999.90;;;;;;;-1.48;100.00;99771.06;5015038;28;20054;-85
2023/02/14 03:44:32;;;;;;;1999.90;999.90;;;;;;;-1.58;100.00;99770.44;4999371;28;20030;-81
2023/02/14 03:47:03;;;;;;;1999.90;999.90;;;;;;;-1.59;100.00;99774.09;5022795;28;20056;-83
2023/02/14 03:49:33;;;;;;;1999.90;999.90;;;;;;;-1.65;100.00;99753.34;5037281;28;20046;-88
2023/02/14 03:52:02;;;;;;;1999.90;999.90;;;;;;;-1.65;100.00;99761.38;5020350;28;20030;-85
2023/02/14 03:54:29;;;;;;;1999.90;999.90;;;;;;;-1.65;100.00;99764.06;5013283;28;20038;-84
2023/02/14 03:57:14;;;;;;;1999.90;999.90;;;;;;;-1.56;100.00;99763.03;5022620;28;20076;-81
2023/02/14 03:59:40;;;;;;;;;;;;;;;-1.55;100.00;99764.72;5023717;28;20038;-83
2023/02/14 04:02:24;;;;;;;1999.90;999.90;;;;;;;-1.71;100.00;99770.13;5023258;28;19920;-83
2023/02/14 04:04:51;;;;;;;1999.90;999.90;;;;;;;-1.66;100.00;99759.75;5017713;28;20160;-82
2023/02/14 04:07:20;;;;;;;1999.90;999.90;;;;;;;-1.67;100.00;99756.22;4996385;28;20025;-81
2023/02/14 04:09:46;;;;;;;1999.90;999.90;;;;;;;-1.72;100.00;99744.31;5013002;28;20042;-82
2023/02/14 04:12:13;;;;;;;1999.90;999.90;;;;;;;-1.72;100.00;99755.88;5000099;28;20164;-84
2023/02/14 04:14:39;;;;;;;1999.90;999.90;;;;;;;-1.79;100.00;99746.88;5018356;28;20479;-82
2023/02/14 04:19:49;;;;;;;1999.90;999.90;;;;;;;-1.65;100.00;99753.34;5023121;28;20037;-83
2023/02/14 04:22:15;;;;;;;1999.90;999.90;;;;;;;-1.77;100.00;99744.00;5023139;28;20022;-83
2023/02/14 04:24:40;;;;;;;1999.90;999.90;;;;;;;-1.79;100.00;99738.00;5006191;28;20034;-85
2023/02/14 04:27:09;;;;;;;1999.90;999.90;;;;;;;-1.61;100.00;99754.69;5023724;28;20053;-82
2023/02/14 04:29:42;;;;;;;1999.90;999.90;;;;;;;-1.68;100.00;99746.50;5025861;28;20068;-83
2023/02/14 04:32:14;;;;;;;1999.90;999.90;;;;;;;-1.77;100.00;99744.84;5025031;28;20025;-81
2023/02/14 04:34:39;;;;;;;1999.90;999.90;;;;;;;-1.66;100.00;99747.13;5024616;28;20020;-83
2023/02/14 04:37:05;;;;;;;1999.90;999.90;;;;;;;-1.65;100.00;99742.63;5023432;28;20108;-82
2023/02/14 04:39:31;;;;;;;1999.90;999.90;;;;;;;-1.72;100.00;99745.16;5023925;28;20046;-84
2023/02/14 04:41:57;;;;;;;1999.90;999.90;;;;;;;-1.83;100.00;99729.44;5024573;28;20034;-83
2023/02/14 04:44:23;;;;;;;1999.90;999.90;;;;;;;-2.02;100.00;99739.72;5027449;28;20030;-83
2023/02/14 04:46:49;;;;;;;1999.90;999.90;;;;;;;-1.87;100.00;99748.72;5025898;28;20033;-82
2023/02/14 04:49:15;;;;;;;1999.90;999.90;;;;;;;-1.80;100.00;99749.72;5024796;28;20029;-82
2023/02/14 04:51:40;;;;;;;1999.90;999.90;;;;;;;-1.87;100.00;99759.44;5008196;28;20034;-83
2023/02/14 04:54:06;;;;;;;1999.90;999.90;;;;;;;-1.97;100.00;99748.91;5024221;28;20017;-82
2023/02/14 04:56:32;;;;;;;1999.90;999.90;;;;;;;-2.01;100.00;99741.41;5015256;28;20091;-82
2023/02/14 04:58:58;;;;;;;1999.90;999.90;;;;;;;-2.08;100.00;99735.03;5024250;28;20010;-83
2023/02/14 05:01:23;;;;;;;1999.90;999.90;;;;;;;-2.04;100.00;99737.22;5020175;28;20040;-81
2023/02/14 05:03:49;;;;;;;1999.90;999.90;;;;;;;-1.98;100.00;99727.66;5023151;28;20030;-83
2023/02/14 05:06:14;;;;;;;1999.90;999.90;;;;;;;-2.04;100.00;99742.59;5025538;28;20014;-83
2023/02/14 05:08:40;;;;;;;1999.90;999.90;;;;;;;-2.05;100.00;99718.63;5021970;28;20065;-84
2023/02/14 05:11:05;;;;;;;1999.90;999.90;;;;;;;-2.10;100.00;99731.69;5019931;28;20111;-83
2023/02/14 05:13:31;;;;;;;1999.90;999.90;;;;;;;-2.11;100.00;99735.38;5001107;28;20022;-82
2023/02/14 05:15:57;;;;;;;1999.90;999.90;;;;;;;-2.08;100.00;99741.25;5017955;28;20090;-83
2023/02/14 05:18:22;;;;;;;1999.90;999.90;;;;;;;-2.06;100.00;99738.38;5016967;28;20037;-81
2023/02/14 05:20:52;;;;;;;1999.90;999.90;;;;;;;-2.04;100.00;99742.59;5003548;28;20100;-84
2023/02/14 05:23:18;;;;;;;1999.90;999.90;;;;;;;-2.04;100.00;99728.34;5005903;28;20029;-83
2023/02/14 05:25:46;;;;;;;1999.90;999.90;;;;;;;-1.88;100.00;99741.72;5004579;28;20018;-82
2023/02/14 05:28:12;;;;;;;1999.90;999.90;;;;;;;-2.10;100.00;99737.06;5002395;28;20054;-82
2023/02/14 05:30:37;;;;;;;1999.90;999.90;;;;;;;-2.11;100.00;99751.47;5001062;28;20077;-81
2023/02/14 05:33:03;;;;;;;1999.90;999.90;;;;;;;-2.10;100.00;99747.78;4999912;28;20388;-83
2023/02/14 05:35:28;;;;;;;1999.90;999.90;;;;;;;-2.17;100.00;99745.78;5021170;28;20044;-85
2023/02/14 05:37:54;;;;;;;1999.90;999.90;;;;;;;-1.97;100.00;99758.81;5021456;28;20037;-83
2023/02/14 05:40:19;;;;;;;1999.90;999.90;;;;;;;-2.04;100.00;99755.13;5021959;28;20046;-84
2023/02/14 05:42:45;;;;;;;1999.90;999.90;;;;;;;-1.97;100.00;99769.53;5020408;28;20022;-83
2023/02/14 05:45:11;;;;;;;1999.90;999.90;;;;;;;-2.12;100.00;99765.84;5019912;28;20048;-81
2023/02/14 05:47:36;;;;;;;1999.90;999.90;;;;;;;-2.06;100.00;99766.00;5017481;28;20033;-85
2023/02/14 05:50:02;;;;;;;1999.90;999.90;;;;;;;-2.17;100.00;99764.53;5013480;28;20030;-77
2023/02/14 05:52:28;;;;;;;1999.90;999.90;;;;;;;-2.31;100.00;99756.34;5022861;28;20033;-88
2023/02/14 05:54:54;;;;;;;1999.90;999.90;;;;;;;-2.37;100.00;99747.13;5008090;28;20022;-84
2023/02/14 05:57:19;;;;;;;1999.90;999.90;;;;;;;-2.05;100.00;99772.22;5004047;28;20026;-85
2023/02/14 05:59:44;;;;;;;1999.90;999.90;;;;;;;-1.97;100.00;99774.91;4996664;28;20026;-78
2023/02/14 06:02:10;;;;;;;1999.90;999.90;;;;;;;-1.93;100.00;99781.56;5012703;28;20056;-83
2023/02/14 06:04:36;;;;;;;1999.90;999.90;;;;;;;-2.00;100.00;99773.38;5019819;28;20045;-81
2023/02/14 06:07:01;;;;;;;1999.90;999.90;;;;;;;-2.01;100.00;99770.88;5020533;28;20064;-84
2023/02/14 06:09:26;;;;;;;1999.90;999.90;;;;;;;-1.94;100.00;99786.09;4996587;28;20037;-82
2023/02/14 06:11:52;;;;;;;1999.90;999.90;;;;;;;-2.10;100.00;99788.81;5018242;28;20018;-82
2023/02/14 06:14:17;;;;;;;1999.90;999.90;;;;;;;-1.97;100.00;99782.94;5021006;28;20112;-82
2023/02/14 06:16:43;;;;;;;1999.90;999.90;;;;;;;-1.94;100.00;99782.59;5017927;28;20074;-81
2023/02/14 06:19:10;;;;;;;1999.90;999.90;;;;;;;-2.01;100.00;99795.00;5012714;28;20029;-82
2023/02/14 06:21:35;;;;;;;1999.90;999.90;;;;;;;-1.98;100.00;99789.31;5002187;28;20044;-83
2023/02/14 06:24:01;;;;;;;1999.90;999.90;;;;;;;-2.03;100.00;99776.41;5020040;28;20368;-81
2023/02/14 06:26:26;;;;;;;1999.90;999.90;;;;;;;-1.90;100.00;99791.97;5018724;28;20038;-87
2023/02/14 06:28:57;;;;;;;1999.90;999.90;;;;;;;-1.87;100.00;99784.41;5002655;28;20026;-84
2023/02/14 06:31:24;;;;;;;1999.90;999.90;;;;;;;-1.85;100.00;99773.53;5002786;28;20029;-84
2023/02/14 06:33:50;;;;;;;1999.90;999.90;;;;;;;-1.75;100.00;99782.19;5005090;28;20026;-85
2023/02/14 06:36:15;;;;;;;1999.90;999.90;;;;;;;-1.77;100.00;99782.38;5014788;28;20034;-83
2023/02/14 06:38:42;;;;;;;1999.90;999.90;;;;;;;-1.63;100.00;99780.84;5014314;28;20046;-82
2023/02/14 06:41:08;;;;;;;1999.90;999.90;;;;;;;-1.74;100.00;99770.47;5028626;28;20030;-84
2023/02/14 06:43:34;;;;;;;1999.90;999.90;;;;;;;-1.66;100.00;99778.50;5026450;28;20041;-80
2023/02/14 06:46:00;;;;;;;1999.90;999.90;;;;;;;-1.40;100.00;99779.06;5024844;28;20025;-78
2023/02/14 06:48:26;;;;;;;1999.90;999.90;;;;;;;-1.43;100.00;99774.06;5025824;28;20038;-84
2023/02/14 06:50:51;;;;;;;1999.90;999.90;;;;;;;-1.38;100.00;99773.53;5009847;28;20089;-83
2023/02/14 06:53:18;;;;;;;1999.90;999.90;;;;;;;-1.33;100.00;99772.00;5018193;28;20045;-81
2023/02/14 06:55:43;;;;;;;1999.90;999.90;;;;;;;-1.09;100.00;99774.56;5017951;28;20499;-82
2023/02/14 06:58:08;;;;;;;1999.90;999.90;;;;;;;-1.06;100.00;99768.00;5021058;28;20076;-82
2023/02/14 07:00:34;;;;;;;1999.90;999.90;;;;;;;-0.79;100.00;99782.78;5024497;28;20096;-81
2023/02/14 07:02:59;;;;;;;1999.90;999.90;;;;;;;-0.83;100.00;99766.19;5009513;28;20065;-83
2023/02/14 07:05:25;;;;;;;1999.90;999.90;;;;;;;-0.71;100.00;99772.81;4989798;28;20006;-85
2023/02/14 07:07:50;;;;;;;1999.90;999.90;;;;;;;-0.50;100.00;99768.66;4974600;28;20038;-79
2023/02/14 07:10:16;;;;;;;1999.90;999.90;;;;;;;-0.26;100.00;99768.44;5006517;28;20414;-82
2023/02/14 07:12:41;;;;;;;1999.90;999.90;;;;;;;-0.03;100.00;99767.38;4994851;28;20019;-85
2023/02/14 07:15:09;;;;;;;1999.90;999.90;;;;;;;0.18;100.00;99771.22;5014937;28;20034;-85
2023/02/14 07:17:35;;;;;;;1999.90;999.90;;;;;;;0.40;100.00;99764.94;5014739;28;20041;-89
2023/02/14 07:20:01;;;;;;;1999.90;999.90;;;;;;;0.54;100.00;99764.06;5009569;28;20033;-84
2023/02/14 07:22:26;;;;;;;1999.90;999.90;;;;;;;0.77;100.00;99761.28;5006407;28;20471;-83
2023/02/14 07:24:51;;;;;;;1999.90;999.90;;;;;;;1.31;100.00;99765.25;5007476;28;20061;-82
2023/02/14 07:27:17;;;;;;;1999.90;999.90;;;;;;;1.67;100.00;99769.72;5007423;28;20049;-83
2023/02/14 07:29:42;;;;;;;1999.90;999.90;;;;;;;2.33;100.00;99765.69;5008171;28;20045;-86
2023/02/14 07:32:08;;;;;;;1999.90;999.90;;;;;;;2.73;100.00;99759.47;5007683;28;20045;-84
2023/02/14 07:34:33;;;;;;;1999.90;999.90;;;;;;;3.55;100.00;99762.88;5004855;28;20033;-83
2023/02/14 07:37:00;;;;;;;1999.90;999.90;;;;;;;3.47;100.00;99759.53;5004648;28;20026;-84
2023/02/14 07:39:25;;;;;;;1999.90;999.90;;;;;;;3.43;100.00;99763.69;5004529;28;20046;-84
2023/02/14 07:41:51;;;;;;;1999.90;999.90;;;;;;;4.74;100.00;99756.34;4988116;28;20499;-83
2023/02/14 07:44:16;;;;;;;1999.90;999.90;;;;;;;5.20;100.00;99758.84;5005890;28;20138;-84
2023/02/14 07:46:42;;;;;;;1999.90;999.90;;;;;;;5.19;100.00;99754.50;5004537;28;20010;-85
2023/02/14 07:49:07;;;;;;;1999.90;999.90;;;;;;;5.96;100.00;99766.13;5003626;28;20037;-85
2023/02/14 07:51:32;;;;;;;1999.90;999.90;;;;;;;6.28;94.69;99757.72;5006498;28;20022;-82
2023/02/14 07:53:58;;;;;;;1999.90;999.90;;;;;;;6.90;90.75;99755.81;4991843;28;20022;-86
2023/02/14 07:56:23;;;;;;;1999.90;999.90;;;;;;;6.49;90.79;99770.03;5009053;28;20057;-84
2023/02/14 07:58:49;;;;;;;1999.90;999.90;;;;;;;7.32;86.50;99760.31;5007563;28;20022;-83
2023/02/14 08:01:15;;;;;;;1999.90;999.90;;;;;;;7.92;81.05;99742.03;5003366;28;20034;-90
2023/02/14 08:03:44;;;;;;;1999.90;999.90;;;;;;;8.38;78.91;99754.91;5002744;28;20026;-87
2023/02/14 08:06:10;;;;;;;1999.90;999.90;;;;;;;9.14;75.68;99754.72;5003673;28;20026;-82
2023/02/14 08:08:36;;;;;;;1999.90;999.90;;;;;;;8.40;76.88;99755.50;5005973;28;20019;-86
2023/02/14 08:11:02;;;;;;;1999.90;999.90;;;;;;;9.46;72.23;99755.06;5005789;28;20113;-85
2023/02/14 08:13:28;;;;;;;1999.90;999.90;;;;;;;11.47;62.01;99737.38;5006444;28;20034;-85
2023/02/14 08:16:06;;;;;;;1999.90;999.90;;;;;;;11.56;58.75;99757.75;4988635;28;20030;-81
2023/02/14 08:18:39;;;;;;;1999.90;999.90;;;;;;;11.22;59.50;99750.78;4988941;28;20023;-86
2023/02/14 08:21:08;;;;;;;1999.90;999.90;;;;;;;11.69;57.91;99742.81;4993643;28;20034;-82
2023/02/14 08:23:33;;;;;;;1999.90;999.90;;;;;;;11.89;57.11;99756.78;5007730;28;20022;-84
2023/02/14 08:25:59;;;;;;;1999.90;999.90;;;;;;;11.12;57.36;99756.16;4993675;28;20030;-87
2023/02/14 08:28:25;;;;;;;1999.90;999.90;;;;;;;11.33;57.90;99758.06;5008305;28;20071;-83
2023/02/14 08:30:51;;;;;;;1999.90;999.90;;;;;;;11.63;55.82;99757.56;5008420;28;20026;-85
2023/02/14 08:33:17;;;;;;;1999.90;999.90;;;;;;;11.72;56.06;99734.94;5009064;28;20018;-82
2023/02/14 08:35:42;;;;;;;1999.90;999.90;;;;;;;10.96;56.48;99748.81;5007599;28;20036;-86
2023/02/14 08:38:08;;;;;;;1999.90;999.90;;;;;;;11.12;55.73;99750.69;4991658;28;20030;-83
2023/02/14 08:40:35;;;;;;;1999.90;999.90;;;;;;;12.24;52.60;99731.59;5008012;28;20066;-82
2023/02/14 08:43:00;;;;;;;1999.90;999.90;;;;;;;12.77;51.71;99733.31;4990853;28;20030;-85
2023/02/14 08:45:25;;;;;;;1999.90;999.90;;;;;;;10.71;56.58;99733.69;4992414;28;20029;-82
2023/02/14 08:47:52;;;;;;;1999.90;999.90;;;;;;;10.71;56.92;99733.69;4992758;28;20101;-84
2023/02/14 08:50:17;;;;;;;1999.90;999.90;;;;;;;11.56;53.93;99729.56;5006972;28;20038;-85
2023/02/14 08:52:43;;;;;;;1999.90;999.90;;;;;;;11.34;55.33;99726.81;5010474;28;20038;-84
2023/02/14 08:55:09;;;;;;;1999.90;999.90;;;;;;;10.77;57.53;99737.34;5008930;28;20041;-82
2023/02/14 08:57:35;;;;;;;1999.90;999.90;;;;;;;12.66;51.89;99735.16;5009258;28;20022;-87
2023/02/14 09:00:00;;;;;;;1999.90;999.90;;;;;;;11.87;52.78;99736.19;5005666;28;20018;-88
2023/02/14 09:02:26;;;;;;;1999.90;999.90;;;;;;;11.56;54.88;99724.88;4986236;28;20073;-84
2023/02/14 09:04:51;;;;;;;1999.90;999.90;;;;;;;12.35;52.60;99720.41;4986507;28;20495;-86
2023/02/14 09:07:17;;;;;;;1999.90;999.90;;;;;;;11.17;55.48;99701.44;4989232;28;20057;-86
2023/02/14 09:09:42;;;;;;;1999.90;999.90;;;;;;;11.53;53.81;99708.94;4990788;28;20022;-83
2023/02/14 09:12:08;;;;;;;1999.90;999.90;;;;;;;11.89;54.06;99736.75;5004723;28;20033;-90
2023/02/14 09:14:40;;;;;;;1999.90;999.90;;;;;;;12.43;52.76;99732.84;5003907;28;20045;-81
2023/02/14 09:17:06;;;;;;;1999.90;999.90;;;;;;;10.54;57.70;99726.59;5008787;28;20035;-85
2023/02/14 09:19:32;;;;;;;1999.90;999.90;;;;;;;10.51;60.95;99719.72;5008149;28;20387;-85
2023/02/14 09:21:58;;;;;;;1999.90;999.90;;;;;;;11.97;55.46;99715.16;5006123;28;20114;-83
2023/02/14 09:24:25;;;;;;;1999.90;999.90;;;;;;;12.61;53.74;99704.94;5009298;28;20022;-85
2023/02/14 09:26:51;;;;;;;1999.90;999.90;;;;;;;12.86;52.10;99704.25;5006748;28;20030;-84
2023/02/14 09:29:16;;;;;;;1999.90;999.90;;;;;;;12.77;52.99;99709.44;5007158;28;20026;-83
2023/02/14 09:31:42;;;;;;;1999.90;999.90;;;;;;;13.02;52.20;99696.91;5001837;28;20034;-90
2023/02/14 09:36:51;;;;;;;1999.90;999.90;;;;;;;13.91;49.85;99701.00;5001438;28;20041;-83
2023/02/14 09:39:17;;;;;;;1999.90;999.90;;;;;;;13.66;50.37;99714.72;5002823;28;20042;-87
2023/02/14 09:42:14;;;;;;;1999.90;999.90;;;;;;;14.37;48.45;99706.56;5001270;28;20152;-88
2023/02/14 09:44:44;;;;;;;1999.90;999.90;;;;;;;13.90;49.33;99693.88;5001758;28;20467;-87
2023/02/14 09:47:34;;;;;;;1999.90;999.90;;;;;;;12.32;52.29;99695.41;5004257;28;20045;-91
2023/02/14 09:50:02;;;;;;;1999.90;999.90;;;;;;;13.34;51.77;99700.38;4987252;28;20031;-83
2023/02/14 09:52:29;;;;;;;1999.90;999.90;;;;;;;13.40;51.10;99696.53;4987275;28;20041;-88
2023/02/14 09:54:59;;;;;;;1999.90;999.90;;;;;;;13.93;49.38;99696.09;5002375;28;20025;-88
2023/02/14 09:57:38;;;;;;;1999.90;999.90;;;;;;;13.79;50.24;99705.97;4988270;28;20054;-91
2023/02/14 10:00:33;;;;;;;1999.90;999.90;;;;;;;13.70;49.60;99693.84;4988071;28;20038;-86
2023/02/14 10:03:27;;;;;;;1999.90;999.90;;;;;;;13.92;49.83;99699.94;4985665;28;20882;-88
2023/02/14 10:06:12;;;;;;;1999.90;999.90;;;;;;;13.73;49.42;99696.06;5008281;28;20427;-84
2023/02/14 10:08:59;;;;;;;1999.90;999.90;;;;;;;14.30;49.02;99697.72;5003811;28;20061;-84
2023/02/14 10:11:26;;;;;;;1999.90;999.90;;;;;;;14.52;48.57;99686.44;5003356;28;20118;-88
2023/02/14 10:14:04;;;;;;;1999.90;999.90;;;;;;;13.83;49.69;99698.00;5004068;28;20042;-86
2023/02/14 10:16:38;;;;;;;1999.90;999.90;;;;;;;14.40;48.02;99683.97;5006780;28;20068;-84
2023/02/14 10:19:20;;;;;;;1999.90;999.90;;;;;;;13.94;49.68;99697.72;5003330;28;20022;-86
2023/02/14 10:22:02;;;;;;;1999.90;999.90;;;;;;;13.77;50.65;99685.34;4986098;28;20035;-83
2023/02/14 10:24:36;;;;;;;1999.90;999.90;;;;;;;14.03;49.29;99684.25;5005385;28;20057;-85
2023/02/14 10:27:14;;;;;;;1999.90;999.90;;;;;;;13.30;52.81;99678.09;4985271;28;20022;-85
2023/02/14 10:29:40;;;;;;;1999.90;999.90;;;;;;;13.88;49.86;99657.53;4978411;28;20038;-82
2023/02/14 10:32:13;;;;;;;1999.90;999.90;;;;;;;14.04;49.90;99671.28;4985287;28;20092;-83
2023/02/14 10:34:46;;;;;;;1999.90;999.90;;;;;;;13.92;49.85;99677.09;4984678;28;20019;-83
2023/02/14 10:37:14;;;;;;;1999.90;999.90;;;;;;;14.94;47.25;99673.91;4981666;28;20034;-82
2023/02/14 10:40:02;;;;;;;1999.90;999.90;;;;;;;14.19;49.12;99671.31;5016615;28;20050;-81
2023/02/14 10:42:46;;;;;;;1999.90;999.90;;;;;;;14.36;48.37;99669.09;5026830;28;20030;-82
2023/02/14 10:45:27;;;;;;;1999.90;999.90;;;;;;;14.31;48.72;99669.94;5026535;28;20720;-86
2023/02/14 10:48:04;;;;;;;1999.90;999.90;;;;;;;14.46;48.29;99664.44;5023286;28;20033;-82
2023/02/14 10:50:40;;;;;;;1999.90;999.90;;;;;;;14.51;48.50;99647.03;5023367;28;20052;-85
2023/02/14 10:53:14;;;;;;;1999.90;999.90;;;;;;;14.60;48.70;99656.38;5023845;28;20054;-86
2023/02/14 10:55:47;;;;;;;1999.90;999.90;;;;;;;13.65;50.90;99655.34;5024944;28;20030;-84
2023/02/14 10:58:16;;;;;;;1999.90;999.90;;;;;;;14.72;48.18;99648.63;5022163;28;20070;-89
2023/02/14 11:00:51;;;;;;;1999.90;999.90;;;;;;;15.12;47.47;99644.91;5003373;28;20550;-83
2023/02/14 11:03:17;;;;;;;1999.90;999.90;;;;;;;14.09;49.74;99630.03;5026329;28;20030;-85
2023/02/14 11:05:46;;;;;;;1999.90;999.90;;;;;;;12.33;55.41;99631.22;5012677;28;20038;-84
2023/02/14 11:08:30;;;;;;;1999.90;999.90;;;;;;;14.85;48.73;99637.00;5006739;28;20030;-85
2023/02/14 11:11:04;;;;;;;1999.90;999.90;;;;;;;14.64;48.34;99631.88;5021705;28;20036;-86
2023/02/14 11:13:39;;;;;;;1999.90;999.90;;;;;;;14.98;48.21;99627.31;5024437;28;20368;-85
2023/02/14 11:16:10;;;;;;;1999.90;999.90;;;;;;;14.25;50.52;99626.16;5009941;28;20422;-88
2023/02/14 11:18:38;;;;;;;1999.90;999.90;;;;;;;14.10;50.65;99623.41;5024543;28;20057;-88